sensor_id;sensor_type;location;lat;lon;timestamp;P1;durP1;ratioP1;P2;durP2;ratioP2
7177;SDS011;3630;42.146;24.756;2023-01-29T00:01:01;18.97;;;10.27;;
7177;SDS011;3630;42.146;24.756;2023-01-29T00:03:28;13.87;;;10.50;;
7177;SDS011;3630;42.146;24.756;2023-01-29T00:05:56;17.58;;;12.88;;
7177;SDS011;3630;42.146;24.756;2023-01-29T00:08:23;13.63;;;10.67;;
7177;SDS011;3630;42.146;24.756;2023-01-29T00:10:50;13.13;;;10.47;;
7177;SDS011;3630;42.146;24.756;2023-01-29T00:13:17;18.63;;;10.60;;
7177;SDS011;3630;42.146;24.756;2023-01-29T00:15:51;19.17;;;12.23;;
7177;SDS011;3630;42.146;24.756;2023-01-29T00:18:20;18.00;;;11.37;;
7177;SDS011;3630;42.146;24.756;2023-01-29T00:20:47;15.67;;;11.27;;
7177;SDS011;3630;42.146;24.756;2023-01-29T00:23:15;12.90;;;10.67;;
7177;SDS011;3630;42.146;24.756;2023-01-29T00:25:42;12.93;;;10.13;;
7177;SDS011;3630;42.146;24.756;2023-01-29T00:28:09;12.73;;;9.23;;
7177;SDS011;3630;42.146;24.756;2023-01-29T00:30:36;16.13;;;9.67;;
7177;SDS011;3630;42.146;24.756;2023-01-29T00:33:03;12.13;;;9.57;;
7177;SDS011;3630;42.146;24.756;2023-01-29T00:35:31;12.07;;;9.77;;
7177;SDS011;3630;42.146;24.756;2023-01-29T00:37:59;13.73;;;9.40;;
7177;SDS011;3630;42.146;24.756;2023-01-29T00:40:29;11.63;;;9.23;;
7177;SDS011;3630;42.146;24.756;2023-01-29T00:43:19;10.87;;;9.10;;
7177;SDS011;3630;42.146;24.756;2023-01-29T00:46:03;14.07;;;10.17;;
7177;SDS011;3630;42.146;24.756;2023-01-29T00:48:31;10.40;;;8.53;;
7177;SDS011;3630;42.146;24.756;2023-01-29T00:50:58;13.67;;;9.57;;
7177;SDS011;3630;42.146;24.756;2023-01-29T00:53:25;13.83;;;10.40;;
7177;SDS011;3630;42.146;24.756;2023-01-29T00:55:53;12.17;;;8.87;;
7177;SDS011;3630;42.146;24.756;2023-01-29T00:58:20;11.27;;;9.37;;
7177;SDS011;3630;42.146;24.756;2023-01-29T01:00:58;12.23;;;9.30;;
7177;SDS011;3630;42.146;24.756;2023-01-29T01:03:26;12.63;;;9.40;;
7177;SDS011;3630;42.146;24.756;2023-01-29T01:06:01;11.93;;;8.83;;
7177;SDS011;3630;42.146;24.756;2023-01-29T01:08:28;14.80;;;9.40;;
7177;SDS011;3630;42.146;24.756;2023-01-29T01:11:14;12.67;;;9.30;;
7177;SDS011;3630;42.146;24.756;2023-01-29T01:13:41;11.90;;;9.03;;
7177;SDS011;3630;42.146;24.756;2023-01-29T01:16:08;14.20;;;10.03;;
7177;SDS011;3630;42.146;24.756;2023-01-29T01:18:35;13.83;;;10.30;;
7177;SDS011;3630;42.146;24.756;2023-01-29T01:21:02;10.23;;;8.80;;
7177;SDS011;3630;42.146;24.756;2023-01-29T01:23:29;13.50;;;10.00;;
7177;SDS011;3630;42.146;24.756;2023-01-29T01:25:56;13.03;;;9.73;;
7177;SDS011;3630;42.146;24.756;2023-01-29T01:28:24;13.63;;;9.27;;
7177;SDS011;3630;42.146;24.756;2023-01-29T01:30:51;12.90;;;9.87;;
7177;SDS011;3630;42.146;24.756;2023-01-29T01:33:18;13.20;;;9.57;;
7177;SDS011;3630;42.146;24.756;2023-01-29T01:35:45;12.30;;;9.97;;
7177;SDS011;3630;42.146;24.756;2023-01-29T01:38:12;14.13;;;10.07;;
7177;SDS011;3630;42.146;24.756;2023-01-29T01:40:42;13.27;;;9.67;;
7177;SDS011;3630;42.146;24.756;2023-01-29T01:43:11;13.53;;;10.07;;
7177;SDS011;3630;42.146;24.756;2023-01-29T01:45:42;12.27;;;9.57;;
7177;SDS011;3630;42.146;24.756;2023-01-29T01:48:17;13.73;;;10.03;;
7177;SDS011;3630;42.146;24.756;2023-01-29T01:50:57;11.70;;;8.63;;
7177;SDS011;3630;42.146;24.756;2023-01-29T01:53:27;13.23;;;9.60;;
7177;SDS011;3630;42.146;24.756;2023-01-29T01:56:04;10.57;;;8.87;;
7177;SDS011;3630;42.146;24.756;2023-01-29T01:58:36;10.93;;;9.27;;
7177;SDS011;3630;42.146;24.756;2023-01-29T02:01:07;11.70;;;9.37;;
7177;SDS011;3630;42.146;24.756;2023-01-29T02:03:37;10.93;;;8.83;;
7177;SDS011;3630;42.146;24.756;2023-01-29T02:06:25;12.60;;;9.37;;
7177;SDS011;3630;42.146;24.756;2023-01-29T02:09:13;12.90;;;9.47;;
7177;SDS011;3630;42.146;24.756;2023-01-29T02:12:02;12.70;;;9.47;;
7177;SDS011;3630;42.146;24.756;2023-01-29T02:14:36;12.57;;;10.73;;
7177;SDS011;3630;42.146;24.756;2023-01-29T02:17:05;14.03;;;10.33;;
7177;SDS011;3630;42.146;24.756;2023-01-29T02:19:40;13.17;;;9.73;;
7177;SDS011;3630;42.146;24.756;2023-01-29T02:22:23;14.30;;;9.67;;
7177;SDS011;3630;42.146;24.756;2023-01-29T02:25:06;12.67;;;9.90;;
7177;SDS011;3630;42.146;24.756;2023-01-29T02:30:39;12.17;;;9.97;;
7177;SDS011;3630;42.146;24.756;2023-01-29T02:33:13;12.67;;;9.40;;
7177;SDS011;3630;42.146;24.756;2023-01-29T02:35:54;13.70;;;10.73;;
7177;SDS011;3630;42.146;24.756;2023-01-29T02:38:31;11.10;;;9.50;;
7177;SDS011;3630;42.146;24.756;2023-01-29T02:41:06;11.60;;;8.93;;
7177;SDS011;3630;42.146;24.756;2023-01-29T02:43:41;12.23;;;9.90;;
7177;SDS011;3630;42.146;24.756;2023-01-29T02:46:14;12.20;;;9.73;;
7177;SDS011;3630;42.146;24.756;2023-01-29T02:48:45;15.17;;;9.67;;
7177;SDS011;3630;42.146;24.756;2023-01-29T02:51:20;12.17;;;10.47;;
7177;SDS011;3630;42.146;24.756;2023-01-29T02:53:52;12.97;;;10.47;;
7177;SDS011;3630;42.146;24.756;2023-01-29T02:56:27;14.60;;;10.50;;
7177;SDS011;3630;42.146;24.756;2023-01-29T02:59:03;12.90;;;10.07;;
7177;SDS011;3630;42.146;24.756;2023-01-29T03:01:34;13.00;;;10.83;;
7177;SDS011;3630;42.146;24.756;2023-01-29T03:04:06;12.33;;;10.30;;
7177;SDS011;3630;42.146;24.756;2023-01-29T03:06:37;13.33;;;10.80;;
7177;SDS011;3630;42.146;24.756;2023-01-29T03:09:09;12.23;;;10.27;;
7177;SDS011;3630;42.146;24.756;2023-01-29T03:11:41;12.47;;;10.00;;
7177;SDS011;3630;42.146;24.756;2023-01-29T03:14:13;13.07;;;10.30;;
7177;SDS011;3630;42.146;24.756;2023-01-29T03:16:44;13.03;;;10.37;;
7177;SDS011;3630;42.146;24.756;2023-01-29T03:19:15;10.70;;;9.00;;
7177;SDS011;3630;42.146;24.756;2023-01-29T03:21:46;11.93;;;9.87;;
7177;SDS011;3630;42.146;24.756;2023-01-29T03:24:21;10.40;;;8.93;;
7177;SDS011;3630;42.146;24.756;2023-01-29T03:27:12;13.37;;;9.17;;
7177;SDS011;3630;42.146;24.756;2023-01-29T03:30:02;12.50;;;9.77;;
7177;SDS011;3630;42.146;24.756;2023-01-29T03:32:49;12.17;;;10.47;;
7177;SDS011;3630;42.146;24.756;2023-01-29T03:35:17;11.57;;;9.60;;
7177;SDS011;3630;42.146;24.756;2023-01-29T03:37:57;10.97;;;9.47;;
7177;SDS011;3630;42.146;24.756;2023-01-29T03:40:25;12.03;;;9.97;;
7177;SDS011;3630;42.146;24.756;2023-01-29T03:42:55;13.07;;;10.10;;
7177;SDS011;3630;42.146;24.756;2023-01-29T03:45:33;14.00;;;9.97;;
7177;SDS011;3630;42.146;24.756;2023-01-29T03:48:07;11.90;;;9.90;;
7177;SDS011;3630;42.146;24.756;2023-01-29T03:50:45;13.00;;;10.07;;
7177;SDS011;3630;42.146;24.756;2023-01-29T03:53:20;14.63;;;11.03;;
7177;SDS011;3630;42.146;24.756;2023-01-29T03:55:52;13.37;;;9.77;;
7177;SDS011;3630;42.146;24.756;2023-01-29T03:58:28;12.60;;;9.73;;
7177;SDS011;3630;42.146;24.756;2023-01-29T04:01:03;10.37;;;9.07;;
7177;SDS011;3630;42.146;24.756;2023-01-29T04:03:40;11.40;;;9.40;;
7177;SDS011;3630;42.146;24.756;2023-01-29T04:06:15;11.17;;;9.23;;
7177;SDS011;3630;42.146;24.756;2023-01-29T04:08:45;11.60;;;9.23;;
7177;SDS011;3630;42.146;24.756;2023-01-29T04:11:16;9.67;;;8.43;;
7177;SDS011;3630;42.146;24.756;2023-01-29T04:13:46;10.60;;;8.90;;
7177;SDS011;3630;42.146;24.756;2023-01-29T04:16:20;10.60;;;8.87;;
7177;SDS011;3630;42.146;24.756;2023-01-29T04:18:51;9.30;;;8.30;;
7177;SDS011;3630;42.146;24.756;2023-01-29T04:21:19;9.73;;;7.67;;
7177;SDS011;3630;42.146;24.756;2023-01-29T04:23:46;12.50;;;8.57;;
7177;SDS011;3630;42.146;24.756;2023-01-29T04:26:19;11.30;;;8.67;;
7177;SDS011;3630;42.146;24.756;2023-01-29T04:29:10;10.03;;;8.27;;
7177;SDS011;3630;42.146;24.756;2023-01-29T04:31:49;11.93;;;9.13;;
7177;SDS011;3630;42.146;24.756;2023-01-29T04:34:35;9.67;;;8.67;;
7177;SDS011;3630;42.146;24.756;2023-01-29T04:37:17;10.23;;;8.10;;
7177;SDS011;3630;42.146;24.756;2023-01-29T04:39:53;12.07;;;9.47;;
7177;SDS011;3630;42.146;24.756;2023-01-29T04:42:26;12.37;;;9.70;;
7177;SDS011;3630;42.146;24.756;2023-01-29T04:44:58;10.37;;;8.47;;
7177;SDS011;3630;42.146;24.756;2023-01-29T04:47:33;9.67;;;8.43;;
7177;SDS011;3630;42.146;24.756;2023-01-29T04:50:08;11.13;;;8.30;;
7177;SDS011;3630;42.146;24.756;2023-01-29T04:52:42;10.57;;;8.77;;
7177;SDS011;3630;42.146;24.756;2023-01-29T04:55:16;10.57;;;8.30;;
7177;SDS011;3630;42.146;24.756;2023-01-29T04:57:53;9.67;;;8.57;;
7177;SDS011;3630;42.146;24.756;2023-01-29T05:00:30;8.57;;;7.67;;
7177;SDS011;3630;42.146;24.756;2023-01-29T05:03:02;10.97;;;8.37;;
7177;SDS011;3630;42.146;24.756;2023-01-29T05:05:33;9.80;;;8.37;;
7177;SDS011;3630;42.146;24.756;2023-01-29T05:08:02;10.77;;;8.43;;
7177;SDS011;3630;42.146;24.756;2023-01-29T05:10:30;10.33;;;8.40;;
7177;SDS011;3630;42.146;24.756;2023-01-29T05:12:59;10.67;;;8.90;;
7177;SDS011;3630;42.146;24.756;2023-01-29T05:15:30;10.30;;;8.50;;
7177;SDS011;3630;42.146;24.756;2023-01-29T05:18:02;9.37;;;8.10;;
7177;SDS011;3630;42.146;24.756;2023-01-29T05:20:33;10.83;;;8.60;;
7177;SDS011;3630;42.146;24.756;2023-01-29T05:23:02;11.33;;;9.33;;
7177;SDS011;3630;42.146;24.756;2023-01-29T05:25:31;12.53;;;8.87;;
7177;SDS011;3630;42.146;24.756;2023-01-29T05:27:59;11.87;;;9.87;;
7177;SDS011;3630;42.146;24.756;2023-01-29T05:30:32;12.73;;;10.23;;
7177;SDS011;3630;42.146;24.756;2023-01-29T05:33:03;11.83;;;10.17;;
7177;SDS011;3630;42.146;24.756;2023-01-29T05:35:30;13.77;;;10.30;;
7177;SDS011;3630;42.146;24.756;2023-01-29T05:37:58;13.43;;;10.47;;
7177;SDS011;3630;42.146;24.756;2023-01-29T05:40:25;13.30;;;10.33;;
7177;SDS011;3630;42.146;24.756;2023-01-29T05:42:52;13.97;;;10.40;;
7177;SDS011;3630;42.146;24.756;2023-01-29T05:45:19;12.97;;;11.13;;
7177;SDS011;3630;42.146;24.756;2023-01-29T05:47:46;12.97;;;10.50;;
7177;SDS011;3630;42.146;24.756;2023-01-29T05:50:15;12.30;;;9.27;;
7177;SDS011;3630;42.146;24.756;2023-01-29T05:52:42;13.20;;;10.77;;
7177;SDS011;3630;42.146;24.756;2023-01-29T05:55:09;13.23;;;10.93;;
7177;SDS011;3630;42.146;24.756;2023-01-29T05:57:36;14.13;;;10.43;;
7177;SDS011;3630;42.146;24.756;2023-01-29T06:00:05;12.43;;;10.17;;
7177;SDS011;3630;42.146;24.756;2023-01-29T06:02:33;13.80;;;10.63;;
7177;SDS011;3630;42.146;24.756;2023-01-29T06:04:59;13.50;;;10.30;;
7177;SDS011;3630;42.146;24.756;2023-01-29T06:07:28;11.40;;;9.80;;
7177;SDS011;3630;42.146;24.756;2023-01-29T06:09:54;12.93;;;10.17;;
7177;SDS011;3630;42.146;24.756;2023-01-29T06:12:21;12.73;;;9.47;;
7177;SDS011;3630;42.146;24.756;2023-01-29T06:14:48;10.93;;;9.73;;
7177;SDS011;3630;42.146;24.756;2023-01-29T06:17:14;11.40;;;9.47;;
7177;SDS011;3630;42.146;24.756;2023-01-29T06:19:41;12.50;;;9.63;;
7177;SDS011;3630;42.146;24.756;2023-01-29T06:22:08;11.17;;;9.43;;
7177;SDS011;3630;42.146;24.756;2023-01-29T06:24:36;12.57;;;9.93;;
7177;SDS011;3630;42.146;24.756;2023-01-29T06:27:03;11.47;;;9.53;;
7177;SDS011;3630;42.146;24.756;2023-01-29T06:29:30;11.27;;;9.37;;
7177;SDS011;3630;42.146;24.756;2023-01-29T06:31:56;13.03;;;10.17;;
7177;SDS011;3630;42.146;24.756;2023-01-29T06:34:23;11.30;;;9.10;;
7177;SDS011;3630;42.146;24.756;2023-01-29T06:36:50;10.97;;;8.43;;
7177;SDS011;3630;42.146;24.756;2023-01-29T06:39:17;10.37;;;8.63;;
7177;SDS011;3630;42.146;24.756;2023-01-29T06:41:45;10.80;;;9.18;;
7177;SDS011;3630;42.146;24.756;2023-01-29T06:44:12;9.57;;;8.23;;
7177;SDS011;3630;42.146;24.756;2023-01-29T06:46:38;10.87;;;8.33;;
7177;SDS011;3630;42.146;24.756;2023-01-29T06:49:05;9.07;;;7.83;;
7177;SDS011;3630;42.146;24.756;2023-01-29T06:51:32;9.60;;;8.60;;
7177;SDS011;3630;42.146;24.756;2023-01-29T06:53:59;10.40;;;8.87;;
7177;SDS011;3630;42.146;24.756;2023-01-29T06:56:25;8.07;;;7.03;;
7177;SDS011;3630;42.146;24.756;2023-01-29T06:58:54;8.97;;;7.33;;
7177;SDS011;3630;42.146;24.756;2023-01-29T07:01:20;10.00;;;7.13;;
7177;SDS011;3630;42.146;24.756;2023-01-29T07:03:48;10.17;;;7.73;;
7177;SDS011;3630;42.146;24.756;2023-01-29T07:06:15;9.33;;;7.77;;
7177;SDS011;3630;42.146;24.756;2023-01-29T07:08:42;8.33;;;7.20;;
7177;SDS011;3630;42.146;24.756;2023-01-29T07:11:09;7.60;;;6.73;;
7177;SDS011;3630;42.146;24.756;2023-01-29T07:13:35;9.50;;;7.70;;
7177;SDS011;3630;42.146;24.756;2023-01-29T07:16:04;8.03;;;6.77;;
7177;SDS011;3630;42.146;24.756;2023-01-29T07:18:31;8.50;;;6.97;;
7177;SDS011;3630;42.146;24.756;2023-01-29T07:20:58;10.60;;;7.90;;
7177;SDS011;3630;42.146;24.756;2023-01-29T07:23:30;7.27;;;6.57;;
7177;SDS011;3630;42.146;24.756;2023-01-29T07:25:59;8.67;;;7.40;;
7177;SDS011;3630;42.146;24.756;2023-01-29T07:28:27;8.87;;;7.33;;
7177;SDS011;3630;42.146;24.756;2023-01-29T07:30:54;8.73;;;7.73;;
7177;SDS011;3630;42.146;24.756;2023-01-29T07:33:23;7.83;;;7.03;;
7177;SDS011;3630;42.146;24.756;2023-01-29T07:35:50;7.93;;;6.60;;
7177;SDS011;3630;42.146;24.756;2023-01-29T07:38:17;10.20;;;6.97;;
7177;SDS011;3630;42.146;24.756;2023-01-29T07:40:44;9.07;;;7.27;;
7177;SDS011;3630;42.146;24.756;2023-01-29T07:43:11;7.60;;;6.67;;
7177;SDS011;3630;42.146;24.756;2023-01-29T07:45:38;8.57;;;6.73;;
7177;SDS011;3630;42.146;24.756;2023-01-29T07:48:06;6.87;;;6.03;;
7177;SDS011;3630;42.146;24.756;2023-01-29T07:50:36;7.37;;;6.53;;
7177;SDS011;3630;42.146;24.756;2023-01-29T07:53:03;8.97;;;7.03;;
7177;SDS011;3630;42.146;24.756;2023-01-29T07:55:30;9.47;;;7.07;;
7177;SDS011;3630;42.146;24.756;2023-01-29T07:57:59;8.07;;;6.30;;
7177;SDS011;3630;42.146;24.756;2023-01-29T08:00:27;9.93;;;7.93;;
7177;SDS011;3630;42.146;24.756;2023-01-29T08:03:00;7.43;;;6.40;;
7177;SDS011;3630;42.146;24.756;2023-01-29T08:05:27;7.17;;;6.33;;
7177;SDS011;3630;42.146;24.756;2023-01-29T08:07:55;8.20;;;6.93;;
7177;SDS011;3630;42.146;24.756;2023-01-29T08:10:22;8.17;;;6.70;;
7177;SDS011;3630;42.146;24.756;2023-01-29T08:12:52;9.23;;;6.63;;
7177;SDS011;3630;42.146;24.756;2023-01-29T08:15:20;10.20;;;6.67;;
7177;SDS011;3630;42.146;24.756;2023-01-29T08:17:47;6.60;;;5.90;;
7177;SDS011;3630;42.146;24.756;2023-01-29T08:20:14;6.77;;;6.10;;
7177;SDS011;3630;42.146;24.756;2023-01-29T08:22:41;8.33;;;6.27;;
7177;SDS011;3630;42.146;24.756;2023-01-29T08:25:09;7.13;;;6.23;;
7177;SDS011;3630;42.146;24.756;2023-01-29T08:27:36;8.20;;;6.70;;
7177;SDS011;3630;42.146;24.756;2023-01-29T08:30:03;7.90;;;6.73;;
7177;SDS011;3630;42.146;24.756;2023-01-29T08:32:31;7.43;;;5.97;;
7177;SDS011;3630;42.146;24.756;2023-01-29T08:34:58;9.47;;;7.60;;
7177;SDS011;3630;42.146;24.756;2023-01-29T08:37:25;7.77;;;6.03;;
7177;SDS011;3630;42.146;24.756;2023-01-29T08:39:52;10.27;;;7.50;;
7177;SDS011;3630;42.146;24.756;2023-01-29T08:42:20;8.47;;;6.40;;
7177;SDS011;3630;42.146;24.756;2023-01-29T08:44:46;9.77;;;6.83;;
7177;SDS011;3630;42.146;24.756;2023-01-29T08:47:13;9.53;;;6.67;;
7177;SDS011;3630;42.146;24.756;2023-01-29T08:49:40;7.60;;;5.77;;
7177;SDS011;3630;42.146;24.756;2023-01-29T08:52:07;8.53;;;6.33;;
7177;SDS011;3630;42.146;24.756;2023-01-29T08:54:33;8.50;;;6.77;;
7177;SDS011;3630;42.146;24.756;2023-01-29T08:57:00;10.30;;;7.43;;
7177;SDS011;3630;42.146;24.756;2023-01-29T08:59:28;8.40;;;7.20;;
7177;SDS011;3630;42.146;24.756;2023-01-29T09:01:55;8.77;;;7.70;;
7177;SDS011;3630;42.146;24.756;2023-01-29T09:04:22;8.17;;;7.20;;
7177;SDS011;3630;42.146;24.756;2023-01-29T09:06:49;7.23;;;6.50;;
7177;SDS011;3630;42.146;24.756;2023-01-29T09:09:16;7.90;;;6.77;;
7177;SDS011;3630;42.146;24.756;2023-01-29T09:11:43;9.80;;;7.77;;
7177;SDS011;3630;42.146;24.756;2023-01-29T09:14:10;8.63;;;7.40;;
7177;SDS011;3630;42.146;24.756;2023-01-29T09:16:39;8.07;;;7.27;;
7177;SDS011;3630;42.146;24.756;2023-01-29T09:19:07;10.87;;;7.57;;
7177;SDS011;3630;42.146;24.756;2023-01-29T09:21:34;9.67;;;7.83;;
7177;SDS011;3630;42.146;24.756;2023-01-29T09:24:00;8.97;;;8.00;;
7177;SDS011;3630;42.146;24.756;2023-01-29T09:26:27;10.87;;;8.07;;
7177;SDS011;3630;42.146;24.756;2023-01-29T09:28:54;11.37;;;9.07;;
7177;SDS011;3630;42.146;24.756;2023-01-29T09:31:21;9.90;;;8.10;;
7177;SDS011;3630;42.146;24.756;2023-01-29T09:33:49;7.40;;;6.57;;
7177;SDS011;3630;42.146;24.756;2023-01-29T09:36:16;12.60;;;7.37;;
7177;SDS011;3630;42.146;24.756;2023-01-29T09:38:43;7.77;;;6.93;;
7177;SDS011;3630;42.146;24.756;2023-01-29T09:41:15;9.00;;;8.10;;
7177;SDS011;3630;42.146;24.756;2023-01-29T09:43:52;8.67;;;7.33;;
7177;SDS011;3630;42.146;24.756;2023-01-29T09:46:24;9.97;;;7.87;;
7177;SDS011;3630;42.146;24.756;2023-01-29T09:48:59;11.40;;;8.23;;
7177;SDS011;3630;42.146;24.756;2023-01-29T09:51:33;8.23;;;7.30;;
7177;SDS011;3630;42.146;24.756;2023-01-29T09:54:10;13.50;;;7.67;;
7177;SDS011;3630;42.146;24.756;2023-01-29T09:56:42;9.53;;;7.20;;
7177;SDS011;3630;42.146;24.756;2023-01-29T09:59:11;9.00;;;7.53;;
7177;SDS011;3630;42.146;24.756;2023-01-29T10:01:40;9.70;;;8.17;;
7177;SDS011;3630;42.146;24.756;2023-01-29T10:04:32;9.40;;;7.57;;
7177;SDS011;3630;42.146;24.756;2023-01-29T10:10:22;8.50;;;7.60;;
7177;SDS011;3630;42.146;24.756;2023-01-29T10:12:58;10.00;;;7.47;;
7177;SDS011;3630;42.146;24.756;2023-01-29T10:15:34;8.10;;;7.07;;
7177;SDS011;3630;42.146;24.756;2023-01-29T10:18:14;8.47;;;7.57;;
7177;SDS011;3630;42.146;24.756;2023-01-29T10:21:03;12.00;;;9.38;;
7177;SDS011;3630;42.146;24.756;2023-01-29T10:23:41;16.27;;;8.37;;
7177;SDS011;3630;42.146;24.756;2023-01-29T10:26:12;8.70;;;7.50;;
7177;SDS011;3630;42.146;24.756;2023-01-29T10:28:40;8.70;;;7.20;;
7177;SDS011;3630;42.146;24.756;2023-01-29T10:31:11;11.53;;;7.90;;
7177;SDS011;3630;42.146;24.756;2023-01-29T10:33:44;8.77;;;7.87;;
7177;SDS011;3630;42.146;24.756;2023-01-29T10:36:17;11.87;;;7.70;;
7177;SDS011;3630;42.146;24.756;2023-01-29T10:38:48;10.00;;;8.93;;
7177;SDS011;3630;42.146;24.756;2023-01-29T10:41:25;9.50;;;7.60;;
7177;SDS011;3630;42.146;24.756;2023-01-29T10:44:09;8.30;;;7.20;;
7177;SDS011;3630;42.146;24.756;2023-01-29T10:46:52;9.00;;;7.90;;
7177;SDS011;3630;42.146;24.756;2023-01-29T10:49:35;13.23;;;7.83;;
7177;SDS011;3630;42.146;24.756;2023-01-29T10:52:20;13.27;;;6.97;;
7177;SDS011;3630;42.146;24.756;2023-01-29T10:54:59;8.53;;;7.50;;
7177;SDS011;3630;42.146;24.756;2023-01-29T10:57:39;8.07;;;7.20;;
7177;SDS011;3630;42.146;24.756;2023-01-29T11:00:16;10.17;;;7.43;;
7177;SDS011;3630;42.146;24.756;2023-01-29T11:02:47;9.23;;;7.83;;
7177;SDS011;3630;42.146;24.756;2023-01-29T11:05:21;8.57;;;7.67;;
7177;SDS011;3630;42.146;24.756;2023-01-29T11:07:58;9.87;;;7.60;;
7177;SDS011;3630;42.146;24.756;2023-01-29T11:10:29;7.97;;;6.97;;
7177;SDS011;3630;42.146;24.756;2023-01-29T11:13:02;7.87;;;7.07;;
7177;SDS011;3630;42.146;24.756;2023-01-29T11:15:31;9.53;;;8.03;;
7177;SDS011;3630;42.146;24.756;2023-01-29T11:18:09;8.77;;;7.67;;
7177;SDS011;3630;42.146;24.756;2023-01-29T11:20:39;8.80;;;7.73;;
7177;SDS011;3630;42.146;24.756;2023-01-29T11:23:22;9.17;;;7.60;;
7177;SDS011;3630;42.146;24.756;2023-01-29T11:25:52;11.03;;;7.57;;
7177;SDS011;3630;42.146;24.756;2023-01-29T11:28:34;9.03;;;7.67;;
7177;SDS011;3630;42.146;24.756;2023-01-29T11:31:02;11.77;;;7.90;;
7177;SDS011;3630;42.146;24.756;2023-01-29T11:33:30;9.80;;;7.97;;
7177;SDS011;3630;42.146;24.756;2023-01-29T11:35:57;7.27;;;6.57;;
7177;SDS011;3630;42.146;24.756;2023-01-29T11:38:25;8.87;;;7.83;;
7177;SDS011;3630;42.146;24.756;2023-01-29T11:40:54;10.17;;;7.97;;
7177;SDS011;3630;42.146;24.756;2023-01-29T11:43:31;9.20;;;7.23;;
7177;SDS011;3630;42.146;24.756;2023-01-29T11:45:59;10.35;;;9.23;;
7177;SDS011;3630;42.146;24.756;2023-01-29T11:48:31;9.23;;;7.67;;
7177;SDS011;3630;42.146;24.756;2023-01-29T11:51:04;8.57;;;7.47;;
7177;SDS011;3630;42.146;24.756;2023-01-29T11:53:37;8.77;;;7.43;;
7177;SDS011;3630;42.146;24.756;2023-01-29T11:56:14;8.77;;;7.83;;
7177;SDS011;3630;42.146;24.756;2023-01-29T11:58:45;7.23;;;6.40;;
7177;SDS011;3630;42.146;24.756;2023-01-29T12:01:15;8.60;;;7.33;;
7177;SDS011;3630;42.146;24.756;2023-01-29T12:03:49;8.23;;;7.27;;
7177;SDS011;3630;42.146;24.756;2023-01-29T12:06:18;9.03;;;7.83;;
7177;SDS011;3630;42.146;24.756;2023-01-29T12:08:53;8.57;;;7.67;;
7177;SDS011;3630;42.146;24.756;2023-01-29T12:11:27;10.27;;;8.33;;
7177;SDS011;3630;42.146;24.756;2023-01-29T12:13:55;9.93;;;7.97;;
7177;SDS011;3630;42.146;24.756;2023-01-29T12:16:26;9.27;;;7.37;;
7177;SDS011;3630;42.146;24.756;2023-01-29T12:18:59;9.80;;;7.90;;
7177;SDS011;3630;42.146;24.756;2023-01-29T12:21:35;11.57;;;7.30;;
7177;SDS011;3630;42.146;24.756;2023-01-29T12:24:11;8.83;;;7.37;;
7177;SDS011;3630;42.146;24.756;2023-01-29T12:26:50;10.60;;;8.13;;
7177;SDS011;3630;42.146;24.756;2023-01-29T12:29:24;10.50;;;7.97;;
7177;SDS011;3630;42.146;24.756;2023-01-29T12:32:03;8.80;;;7.40;;
7177;SDS011;3630;42.146;24.756;2023-01-29T12:34:41;11.63;;;8.07;;
7177;SDS011;3630;42.146;24.756;2023-01-29T12:37:16;8.43;;;7.53;;
7177;SDS011;3630;42.146;24.756;2023-01-29T12:39:48;10.07;;;8.98;;
7177;SDS011;3630;42.146;24.756;2023-01-29T12:42:18;9.53;;;8.20;;
7177;SDS011;3630;42.146;24.756;2023-01-29T12:44:47;9.83;;;8.83;;
7177;SDS011;3630;42.146;24.756;2023-01-29T12:47:19;9.93;;;8.23;;
7177;SDS011;3630;42.146;24.756;2023-01-29T12:49:50;9.27;;;7.73;;
7177;SDS011;3630;42.146;24.756;2023-01-29T12:52:20;9.47;;;8.43;;
7177;SDS011;3630;42.146;24.756;2023-01-29T12:54:56;9.77;;;8.23;;
7177;SDS011;3630;42.146;24.756;2023-01-29T12:57:28;10.53;;;7.90;;
7177;SDS011;3630;42.146;24.756;2023-01-29T13:00:04;8.27;;;7.07;;
7177;SDS011;3630;42.146;24.756;2023-01-29T13:02:34;13.97;;;9.07;;
7177;SDS011;3630;42.146;24.756;2023-01-29T13:05:06;10.67;;;8.47;;
7177;SDS011;3630;42.146;24.756;2023-01-29T13:07:44;9.27;;;7.40;;
7177;SDS011;3630;42.146;24.756;2023-01-29T13:10:16;11.20;;;8.73;;
7177;SDS011;3630;42.146;24.756;2023-01-29T13:12:48;10.90;;;9.37;;
7177;SDS011;3630;42.146;24.756;2023-01-29T13:15:21;9.47;;;8.37;;
7177;SDS011;3630;42.146;24.756;2023-01-29T13:17:53;8.93;;;8.03;;
7177;SDS011;3630;42.146;24.756;2023-01-29T13:20:25;9.47;;;8.37;;
7177;SDS011;3630;42.146;24.756;2023-01-29T13:22:55;10.40;;;7.90;;
7177;SDS011;3630;42.146;24.756;2023-01-29T13:25:28;8.90;;;7.27;;
7177;SDS011;3630;42.146;24.756;2023-01-29T13:27:55;9.87;;;8.07;;
7177;SDS011;3630;42.146;24.756;2023-01-29T13:30:24;17.75;;;12.80;;
7177;SDS011;3630;42.146;24.756;2023-01-29T13:32:55;10.07;;;8.30;;
7177;SDS011;3630;42.146;24.756;2023-01-29T13:35:33;10.20;;;7.50;;
7177;SDS011;3630;42.146;24.756;2023-01-29T13:38:02;8.90;;;7.07;;
7177;SDS011;3630;42.146;24.756;2023-01-29T13:40:32;12.67;;;8.03;;
7177;SDS011;3630;42.146;24.756;2023-01-29T13:43:00;12.03;;;8.90;;
7177;SDS011;3630;42.146;24.756;2023-01-29T13:45:31;10.23;;;8.70;;
7177;SDS011;3630;42.146;24.756;2023-01-29T13:48:07;11.10;;;10.00;;
7177;SDS011;3630;42.146;24.756;2023-01-29T13:50:36;12.07;;;9.07;;
7177;SDS011;3630;42.146;24.756;2023-01-29T13:53:05;11.63;;;8.47;;
7177;SDS011;3630;42.146;24.756;2023-01-29T13:55:36;11.43;;;8.70;;
7177;SDS011;3630;42.146;24.756;2023-01-29T13:58:04;13.63;;;8.93;;
7177;SDS011;3630;42.146;24.756;2023-01-29T14:00:49;13.40;;;10.13;;
7177;SDS011;3630;42.146;24.756;2023-01-29T14:12:38;12.10;;;8.43;;
7177;SDS011;3630;42.146;24.756;2023-01-29T14:15:16;11.10;;;7.93;;
7177;SDS011;3630;42.146;24.756;2023-01-29T14:18:04;10.13;;;8.77;;
7177;SDS011;3630;42.146;24.756;2023-01-29T14:20:50;11.23;;;9.03;;
7177;SDS011;3630;42.146;24.756;2023-01-29T14:23:23;15.00;;;9.87;;
7177;SDS011;3630;42.146;24.756;2023-01-29T14:25:55;10.63;;;9.07;;
7177;SDS011;3630;42.146;24.756;2023-01-29T14:28:27;10.43;;;8.80;;
7177;SDS011;3630;42.146;24.756;2023-01-29T14:30:55;10.00;;;9.00;;
7177;SDS011;3630;42.146;24.756;2023-01-29T14:33:24;10.80;;;9.57;;
7177;SDS011;3630;42.146;24.756;2023-01-29T14:35:54;10.03;;;8.30;;
7177;SDS011;3630;42.146;24.756;2023-01-29T14:38:23;11.57;;;8.67;;
7177;SDS011;3630;42.146;24.756;2023-01-29T14:41:01;10.67;;;8.83;;
7177;SDS011;3630;42.146;24.756;2023-01-29T14:43:32;9.77;;;8.73;;
7177;SDS011;3630;42.146;24.756;2023-01-29T14:48:59;11.20;;;8.60;;
7177;SDS011;3630;42.146;24.756;2023-01-29T14:51:25;8.73;;;7.83;;
7177;SDS011;3630;42.146;24.756;2023-01-29T14:53:58;10.80;;;8.77;;
7177;SDS011;3630;42.146;24.756;2023-01-29T14:56:29;10.40;;;9.17;;
7177;SDS011;3630;42.146;24.756;2023-01-29T14:59:03;10.23;;;9.00;;
7177;SDS011;3630;42.146;24.756;2023-01-29T15:01:38;12.07;;;10.80;;
7177;SDS011;3630;42.146;24.756;2023-01-29T15:04:13;12.10;;;9.60;;
7177;SDS011;3630;42.146;24.756;2023-01-29T15:06:45;13.23;;;9.50;;
7177;SDS011;3630;42.146;24.756;2023-01-29T15:09:16;11.53;;;10.33;;
7177;SDS011;3630;42.146;24.756;2023-01-29T15:12:02;12.23;;;10.63;;
7177;SDS011;3630;42.146;24.756;2023-01-29T15:14:42;11.73;;;10.53;;
7177;SDS011;3630;42.146;24.756;2023-01-29T15:17:17;16.90;;;11.70;;
7177;SDS011;3630;42.146;24.756;2023-01-29T15:19:48;12.20;;;10.90;;
7177;SDS011;3630;42.146;24.756;2023-01-29T15:22:16;12.03;;;10.23;;
7177;SDS011;3630;42.146;24.756;2023-01-29T15:24:44;13.97;;;10.97;;
7177;SDS011;3630;42.146;24.756;2023-01-29T15:27:13;12.27;;;10.43;;
7177;SDS011;3630;42.146;24.756;2023-01-29T15:29:45;15.07;;;11.47;;
7177;SDS011;3630;42.146;24.756;2023-01-29T15:32:19;16.03;;;11.87;;
7177;SDS011;3630;42.146;24.756;2023-01-29T15:34:54;14.13;;;12.63;;